sensor_id;sensor_type;location;lat;lon;timestamp;P1;P2;P0
72854;PMS7003;60991;51.278;22.550;2022-09-09T00:01:00;13.00;13.00;10.00
72854;PMS7003;60991;51.278;22.550;2022-09-09T00:02:38;12.00;10.00;8.00
72854;PMS7003;60991;51.278;22.550;2022-09-09T00:04:15;13.75;13.75;9.00
72854;PMS7003;60991;51.278;22.550;2022-09-09T00:06:14;18.75;15.75;9.25
72854;PMS7003;60991;51.278;22.550;2022-09-09T00:08:12;14.50;13.50;9.75
72854;PMS7003;60991;51.278;22.550;2022-09-09T00:12:05;15.00;14.25;10.25
72854;PMS7003;60991;51.278;22.550;2022-09-09T00:13:37;21.50;17.00;11.25
72854;PMS7003;60991;51.278;22.550;2022-09-09T00:15:19;15.25;13.50;8.75
72854;PMS7003;60991;51.278;22.550;2022-09-09T00:16:54;11.50;11.00;9.00
72854;PMS7003;60991;51.278;22.550;2022-09-09T00:20:21;13.25;12.75;9.25
72854;PMS7003;60991;51.278;22.550;2022-09-09T00:23:25;13.25;11.75;8.75
72854;PMS7003;60991;51.278;22.550;2022-09-09T00:25:06;10.50;10.50;8.25
72854;PMS7003;60991;51.278;22.550;2022-09-09T00:26:51;14.00;14.00;11.00
72854;PMS7003;60991;51.278;22.550;2022-09-09T00:28:27;13.75;12.00;8.00
72854;PMS7003;60991;51.278;22.550;2022-09-09T00:30:00;17.00;14.75;10.00
72854;PMS7003;60991;51.278;22.550;2022-09-09T00:31:50;11.50;11.50;8.25
72854;PMS7003;60991;51.278;22.550;2022-09-09T00:33:30;11.00;10.00;8.25
72854;PMS7003;60991;51.278;22.550;2022-09-09T00:35:13;13.25;12.50;8.00
72854;PMS7003;60991;51.278;22.550;2022-09-09T00:36:44;11.75;11.50;7.25
72854;PMS7003;60991;51.278;22.550;2022-09-09T00:38:27;12.25;12.25;10.00
72854;PMS7003;60991;51.278;22.550;2022-09-09T00:40:02;11.25;10.00;8.00
72854;PMS7003;60991;51.278;22.550;2022-09-09T00:43:42;16.00;15.75;9.50
72854;PMS7003;60991;51.278;22.550;2022-09-09T00:47:20;15.25;14.25;10.25
72854;PMS7003;60991;51.278;22.550;2022-09-09T00:56:09;10.25;10.25;4.00
72854;PMS7003;60991;51.278;22.550;2022-09-09T00:57:43;8.25;8.25;7.00
72854;PMS7003;60991;51.278;22.550;2022-09-09T01:01:10;14.75;14.50;10.50
72854;PMS7003;60991;51.278;22.550;2022-09-09T01:04:51;9.25;8.75;8.00
72854;PMS7003;60991;51.278;22.550;2022-09-09T01:08:08;11.75;11.75;9.50
72854;PMS7003;60991;51.278;22.550;2022-09-09T01:12:55;13.25;13.25;9.00
72854;PMS7003;60991;51.278;22.550;2022-09-09T01:16:07;13.50;13.50;8.50
72854;PMS7003;60991;51.278;22.550;2022-09-09T01:19:35;11.50;11.50;8.00
72854;PMS7003;60991;51.278;22.550;2022-09-09T01:24:47;15.50;12.25;9.00
72854;PMS7003;60991;51.278;22.550;2022-09-09T01:26:21;16.00;13.50;10.50
72854;PMS7003;60991;51.278;22.550;2022-09-09T01:28:01;13.00;11.75;8.25
72854;PMS7003;60991;51.278;22.550;2022-09-09T01:29:38;13.00;11.00;9.00
72854;PMS7003;60991;51.278;22.550;2022-09-09T01:31:10;17.50;11.00;9.00
72854;PMS7003;60991;51.278;22.550;2022-09-09T01:32:46;12.50;12.25;8.75
72854;PMS7003;60991;51.278;22.550;2022-09-09T01:34:18;10.00;8.25;5.75
72854;PMS7003;60991;51.278;22.550;2022-09-09T01:35:54;10.50;10.50;8.25
72854;PMS7003;60991;51.278;22.550;2022-09-09T01:37:27;12.25;11.00;8.75
72854;PMS7003;60991;51.278;22.550;2022-09-09T01:38:57;12.25;12.25;9.00
72854;PMS7003;60991;51.278;22.550;2022-09-09T01:40:28;15.00;12.25;9.75
72854;PMS7003;60991;51.278;22.550;2022-09-09T01:41:58;14.00;13.00;8.50
72854;PMS7003;60991;51.278;22.550;2022-09-09T01:43:29;15.50;12.25;8.25
72854;PMS7003;60991;51.278;22.550;2022-09-09T01:45:00;14.75;13.00;9.00
72854;PMS7003;60991;51.278;22.550;2022-09-09T01:46:30;15.25;13.75;9.75
72854;PMS7003;60991;51.278;22.550;2022-09-09T01:48:01;15.75;15.25;10.00
72854;PMS7003;60991;51.278;22.550;2022-09-09T01:49:31;14.25;12.25;9.00
72854;PMS7003;60991;51.278;22.550;2022-09-09T01:51:02;13.50;12.75;9.75
72854;PMS7003;60991;51.278;22.550;2022-09-09T01:52:32;15.00;12.00;7.50
72854;PMS7003;60991;51.278;22.550;2022-09-09T01:54:06;15.50;14.75;10.00
72854;PMS7003;60991;51.278;22.550;2022-09-09T01:55:37;13.50;11.50;9.50
72854;PMS7003;60991;51.278;22.550;2022-09-09T01:57:27;18.25;13.50;10.50
72854;PMS7003;60991;51.278;22.550;2022-09-09T02:00:56;16.00;14.50;9.50
72854;PMS7003;60991;51.278;22.550;2022-09-09T02:04:34;9.75;9.00;7.25
72854;PMS7003;60991;51.278;22.550;2022-09-09T02:06:18;11.75;11.75;10.00
72854;PMS7003;60991;51.278;22.550;2022-09-09T02:08:07;17.00;14.50;10.25
72854;PMS7003;60991;51.278;22.550;2022-09-09T02:09:38;16.00;14.75;10.75
72854;PMS7003;60991;51.278;22.550;2022-09-09T02:11:16;16.75;15.00;9.75
72854;PMS7003;60991;51.278;22.550;2022-09-09T02:12:50;14.00;14.00;10.00
72854;PMS7003;60991;51.278;22.550;2022-09-09T02:14:27;16.50;14.00;9.00
72854;PMS7003;60991;51.278;22.550;2022-09-09T02:16:07;19.25;15.75;11.00
72854;PMS7003;60991;51.278;22.550;2022-09-09T02:17:42;16.00;13.25;9.75
72854;PMS7003;60991;51.278;22.550;2022-09-09T02:19:13;13.75;12.75;8.50
72854;PMS7003;60991;51.278;22.550;2022-09-09T02:20:49;18.75;16.75;10.50
72854;PMS7003;60991;51.278;22.550;2022-09-09T02:22:22;19.25;15.25;10.25
72854;PMS7003;60991;51.278;22.550;2022-09-09T02:23:55;13.25;12.50;9.50
72854;PMS7003;60991;51.278;22.550;2022-09-09T02:25:29;17.75;13.75;8.25
72854;PMS7003;60991;51.278;22.550;2022-09-09T02:26:59;14.75;13.50;9.75
72854;PMS7003;60991;51.278;22.550;2022-09-09T02:28:35;16.25;13.50;10.75
72854;PMS7003;60991;51.278;22.550;2022-09-09T02:30:08;18.00;15.75;10.50
72854;PMS7003;60991;51.278;22.550;2022-09-09T02:31:39;17.25;15.00;10.00
72854;PMS7003;60991;51.278;22.550;2022-09-09T02:33:12;14.75;13.00;10.00
72854;PMS7003;60991;51.278;22.550;2022-09-09T02:34:48;19.00;15.50;10.25
72854;PMS7003;60991;51.278;22.550;2022-09-09T02:36:21;15.00;13.00;9.25
72854;PMS7003;60991;51.278;22.550;2022-09-09T02:37:56;27.75;17.75;11.50
72854;PMS7003;60991;51.278;22.550;2022-09-09T02:39:34;18.50;16.50;11.00
72854;PMS7003;60991;51.278;22.550;2022-09-09T02:41:04;20.75;16.25;11.00
72854;PMS7003;60991;51.278;22.550;2022-09-09T02:42:41;15.25;11.75;9.50
72854;PMS7003;60991;51.278;22.550;2022-09-09T02:44:14;17.50;16.00;10.00
72854;PMS7003;60991;51.278;22.550;2022-09-09T02:51:15;17.25;15.75;9.00
72854;PMS7003;60991;51.278;22.550;2022-09-09T02:54:50;16.50;13.25;10.00
72854;PMS7003;60991;51.278;22.550;2022-09-09T02:56:27;14.00;14.00;9.50
72854;PMS7003;60991;51.278;22.550;2022-09-09T02:58:03;17.25;17.25;12.00
72854;PMS7003;60991;51.278;22.550;2022-09-09T02:59:37;23.00;17.00;11.00
72854;PMS7003;60991;51.278;22.550;2022-09-09T03:01:08;14.75;14.75;10.75
72854;PMS7003;60991;51.278;22.550;2022-09-09T03:02:38;17.50;15.75;10.50
72854;PMS7003;60991;51.278;22.550;2022-09-09T03:04:09;16.00;16.00;9.00
72854;PMS7003;60991;51.278;22.550;2022-09-09T03:05:39;17.00;14.50;10.75
72854;PMS7003;60991;51.278;22.550;2022-09-09T03:07:10;15.25;13.00;9.25
72854;PMS7003;60991;51.278;22.550;2022-09-09T03:08:41;14.25;14.25;10.00
72854;PMS7003;60991;51.278;22.550;2022-09-09T03:10:11;16.25;16.25;9.75
72854;PMS7003;60991;51.278;22.550;2022-09-09T03:11:42;15.25;14.25;10.00
72854;PMS7003;60991;51.278;22.550;2022-09-09T03:13:12;15.25;15.00;8.50
72854;PMS7003;60991;51.278;22.550;2022-09-09T03:14:42;20.00;14.75;10.00
72854;PMS7003;60991;51.278;22.550;2022-09-09T03:16:13;16.00;14.00;9.75
72854;PMS7003;60991;51.278;22.550;2022-09-09T03:17:43;13.75;13.75;10.50
72854;PMS7003;60991;51.278;22.550;2022-09-09T03:19:13;18.50;17.25;10.25
72854;PMS7003;60991;51.278;22.550;2022-09-09T03:20:43;18.50;16.25;10.25
72854;PMS7003;60991;51.278;22.550;2022-09-09T03:22:16;16.50;16.00;11.25
72854;PMS7003;60991;51.278;22.550;2022-09-09T03:23:46;16.00;14.75;9.00
72854;PMS7003;60991;51.278;22.550;2022-09-09T03:25:17;16.75;16.50;10.00
72854;PMS7003;60991;51.278;22.550;2022-09-09T03:26:47;13.25;12.00;10.00
72854;PMS7003;60991;51.278;22.550;2022-09-09T03:28:17;17.75;15.00;11.00
72854;PMS7003;60991;51.278;22.550;2022-09-09T03:29:48;17.50;11.25;8.25
72854;PMS7003;60991;51.278;22.550;2022-09-09T03:31:18;15.50;13.50;9.25
72854;PMS7003;60991;51.278;22.550;2022-09-09T03:32:48;15.75;15.00;10.00
72854;PMS7003;60991;51.278;22.550;2022-09-09T03:34:18;17.00;15.25;10.50
72854;PMS7003;60991;51.278;22.550;2022-09-09T03:35:49;15.25;14.25;9.50
72854;PMS7003;60991;51.278;22.550;2022-09-09T03:37:19;15.50;13.00;9.00
72854;PMS7003;60991;51.278;22.550;2022-09-09T03:38:50;14.50;13.00;10.00
72854;PMS7003;60991;51.278;22.550;2022-09-09T03:40:20;18.00;15.75;12.00
72854;PMS7003;60991;51.278;22.550;2022-09-09T03:41:50;19.00;16.00;9.75
72854;PMS7003;60991;51.278;22.550;2022-09-09T03:43:21;13.75;13.75;10.75
72854;PMS7003;60991;51.278;22.550;2022-09-09T03:44:51;20.25;17.00;11.25
72854;PMS7003;60991;51.278;22.550;2022-09-09T03:46:23;16.75;15.25;11.00
72854;PMS7003;60991;51.278;22.550;2022-09-09T03:47:54;16.75;16.00;9.00
72854;PMS7003;60991;51.278;22.550;2022-09-09T03:49:25;15.50;15.50;10.50
72854;PMS7003;60991;51.278;22.550;2022-09-09T03:50:55;21.25;16.00;10.50
72854;PMS7003;60991;51.278;22.550;2022-09-09T03:52:25;19.75;18.50;12.25
72854;PMS7003;60991;51.278;22.550;2022-09-09T03:53:56;19.25;17.50;12.25
72854;PMS7003;60991;51.278;22.550;2022-09-09T03:55:26;18.50;14.00;12.00
72854;PMS7003;60991;51.278;22.550;2022-09-09T03:56:56;17.75;16.25;11.50
72854;PMS7003;60991;51.278;22.550;2022-09-09T03:58:27;19.00;18.25;11.75
72854;PMS7003;60991;51.278;22.550;2022-09-09T03:59:57;24.50;19.50;11.75
72854;PMS7003;60991;51.278;22.550;2022-09-09T04:01:28;17.50;17.50;12.00
72854;PMS7003;60991;51.278;22.550;2022-09-09T04:02:58;18.75;15.25;10.00
72854;PMS7003;60991;51.278;22.550;2022-09-09T04:04:29;14.00;13.75;10.25
72854;PMS7003;60991;51.278;22.550;2022-09-09T04:05:59;20.00;16.75;11.25
72854;PMS7003;60991;51.278;22.550;2022-09-09T04:07:33;15.25;15.25;11.00
72854;PMS7003;60991;51.278;22.550;2022-09-09T04:09:03;17.25;16.75;10.25
72854;PMS7003;60991;51.278;22.550;2022-09-09T04:10:34;12.25;12.25;10.00
72854;PMS7003;60991;51.278;22.550;2022-09-09T04:12:04;15.00;14.00;10.00
72854;PMS7003;60991;51.278;22.550;2022-09-09T04:13:35;14.50;14.50;10.00
72854;PMS7003;60991;51.278;22.550;2022-09-09T04:15:07;19.00;16.50;11.00
72854;PMS7003;60991;51.278;22.550;2022-09-09T04:16:38;15.00;13.75;10.00
72854;PMS7003;60991;51.278;22.550;2022-09-09T04:18:08;20.25;18.50;11.00
72854;PMS7003;60991;51.278;22.550;2022-09-09T04:19:39;12.50;11.00;7.25
72854;PMS7003;60991;51.278;22.550;2022-09-09T04:21:09;16.25;15.50;10.50
72854;PMS7003;60991;51.278;22.550;2022-09-09T04:22:40;17.75;15.00;10.00
72854;PMS7003;60991;51.278;22.550;2022-09-09T04:24:10;16.25;16.25;11.25
72854;PMS7003;60991;51.278;22.550;2022-09-09T04:25:44;16.75;15.75;11.00
72854;PMS7003;60991;51.278;22.550;2022-09-09T04:27:15;20.25;18.00;11.50
72854;PMS7003;60991;51.278;22.550;2022-09-09T04:28:45;18.75;17.25;10.75
72854;PMS7003;60991;51.278;22.550;2022-09-09T04:30:16;22.25;18.50;10.00
72854;PMS7003;60991;51.278;22.550;2022-09-09T04:31:46;19.75;17.75;10.75
72854;PMS7003;60991;51.278;22.550;2022-09-09T04:33:16;23.00;22.00;10.50
72854;PMS7003;60991;51.278;22.550;2022-09-09T04:34:47;14.75;14.75;10.75
72854;PMS7003;60991;51.278;22.550;2022-09-09T04:36:17;15.25;12.00;8.75
72854;PMS7003;60991;51.278;22.550;2022-09-09T04:37:48;17.25;16.75;9.25
72854;PMS7003;60991;51.278;22.550;2022-09-09T04:39:18;20.25;16.50;10.75
72854;PMS7003;60991;51.278;22.550;2022-09-09T04:40:49;17.25;13.50;9.00
72854;PMS7003;60991;51.278;22.550;2022-09-09T04:42:21;17.25;15.50;12.00
72854;PMS7003;60991;51.278;22.550;2022-09-09T04:43:51;15.75;15.75;10.00
72854;PMS7003;60991;51.278;22.550;2022-09-09T04:45:21;18.75;15.50;11.50
72854;PMS7003;60991;51.278;22.550;2022-09-09T04:46:51;18.50;16.00;11.00
72854;PMS7003;60991;51.278;22.550;2022-09-09T04:48:22;14.25;11.75;8.25
72854;PMS7003;60991;51.278;22.550;2022-09-09T04:49:52;16.75;14.50;10.25
72854;PMS7003;60991;51.278;22.550;2022-09-09T04:51:22;16.50;16.50;11.00
72854;PMS7003;60991;51.278;22.550;2022-09-09T04:52:53;15.00;14.25;10.00
72854;PMS7003;60991;51.278;22.550;2022-09-09T04:54:23;19.00;13.00;10.00
72854;PMS7003;60991;51.278;22.550;2022-09-09T04:56:00;18.25;15.75;10.00
72854;PMS7003;60991;51.278;22.550;2022-09-09T04:57:34;20.25;15.00;10.00
72854;PMS7003;60991;51.278;22.550;2022-09-09T04:59:04;17.25;13.50;9.50
72854;PMS7003;60991;51.278;22.550;2022-09-09T05:00:34;16.75;13.25;9.00
72854;PMS7003;60991;51.278;22.550;2022-09-09T05:02:05;20.00;16.25;10.50
72854;PMS7003;60991;51.278;22.550;2022-09-09T05:03:35;18.75;14.25;9.50
72854;PMS7003;60991;51.278;22.550;2022-09-09T05:05:06;20.25;18.25;11.00
72854;PMS7003;60991;51.278;22.550;2022-09-09T05:06:36;16.50;14.00;11.00
72854;PMS7003;60991;51.278;22.550;2022-09-09T05:08:07;24.00;15.75;10.50
72854;PMS7003;60991;51.278;22.550;2022-09-09T05:09:38;13.00;12.50;9.00
72854;PMS7003;60991;51.278;22.550;2022-09-09T05:11:19;15.75;13.50;10.00
72854;PMS7003;60991;51.278;22.550;2022-09-09T05:12:54;13.75;13.75;9.00
72854;PMS7003;60991;51.278;22.550;2022-09-09T05:14:24;14.50;14.25;10.75
72854;PMS7003;60991;51.278;22.550;2022-09-09T05:15:54;24.00;14.75;10.75
72854;PMS7003;60991;51.278;22.550;2022-09-09T05:17:25;14.00;13.75;9.00
72854;PMS7003;60991;51.278;22.550;2022-09-09T05:18:55;16.50;16.25;10.75
72854;PMS7003;60991;51.278;22.550;2022-09-09T05:20:26;19.50;18.00;12.00
72854;PMS7003;60991;51.278;22.550;2022-09-09T05:21:57;14.00;14.00;9.25
72854;PMS7003;60991;51.278;22.550;2022-09-09T05:23:27;18.75;15.75;11.50
72854;PMS7003;60991;51.278;22.550;2022-09-09T05:24:58;20.50;17.00;12.00
72854;PMS7003;60991;51.278;22.550;2022-09-09T05:26:28;14.50;14.00;11.00
72854;PMS7003;60991;51.278;22.550;2022-09-09T05:27:59;15.00;14.75;10.25
72854;PMS7003;60991;51.278;22.550;2022-09-09T05:29:29;19.75;17.75;11.50
72854;PMS7003;60991;51.278;22.550;2022-09-09T05:31:00;16.00;10.25;8.50
72854;PMS7003;60991;51.278;22.550;2022-09-09T05:32:32;18.75;16.25;9.25
72854;PMS7003;60991;51.278;22.550;2022-09-09T05:34:02;18.75;18.25;11.50
72854;PMS7003;60991;51.278;22.550;2022-09-09T05:35:32;11.75;11.00;9.25
72854;PMS7003;60991;51.278;22.550;2022-09-09T05:37:03;19.75;17.00;10.00
72854;PMS7003;60991;51.278;22.550;2022-09-09T05:38:33;20.25;16.00;11.25
72854;PMS7003;60991;51.278;22.550;2022-09-09T05:40:04;16.75;14.00;9.00
72854;PMS7003;60991;51.278;22.550;2022-09-09T05:41:35;18.00;16.25;11.00
72854;PMS7003;60991;51.278;22.550;2022-09-09T05:43:05;16.00;15.75;10.75
72854;PMS7003;60991;51.278;22.550;2022-09-09T05:44:36;14.75;14.75;11.50
72854;PMS7003;60991;51.278;22.550;2022-09-09T05:46:09;16.00;13.75;11.00
72854;PMS7003;60991;51.278;22.550;2022-09-09T05:47:42;16.25;16.00;10.50
72854;PMS7003;60991;51.278;22.550;2022-09-09T05:49:12;19.50;16.75;11.25
72854;PMS7003;60991;51.278;22.550;2022-09-09T05:50:42;18.75;17.75;11.50
72854;PMS7003;60991;51.278;22.550;2022-09-09T05:52:13;14.50;13.50;9.25
72854;PMS7003;60991;51.278;22.550;2022-09-09T05:53:44;12.50;12.25;10.00
72854;PMS7003;60991;51.278;22.550;2022-09-09T05:55:15;16.50;14.50;9.25
72854;PMS7003;60991;51.278;22.550;2022-09-09T05:56:45;17.75;15.00;10.00
72854;PMS7003;60991;51.278;22.550;2022-09-09T05:58:16;19.50;16.00;9.50
72854;PMS7003;60991;51.278;22.550;2022-09-09T05:59:46;15.00;13.75;10.00
72854;PMS7003;60991;51.278;22.550;2022-09-09T06:01:35;18.25;16.25;11.00
72854;PMS7003;60991;51.278;22.550;2022-09-09T06:03:06;17.75;14.50;10.00
72854;PMS7003;60991;51.278;22.550;2022-09-09T06:04:40;16.25;14.75;9.50
72854;PMS7003;60991;51.278;22.550;2022-09-09T06:06:12;15.00;12.50;10.00
72854;PMS7003;60991;51.278;22.550;2022-09-09T06:07:44;14.75;14.75;10.75
72854;PMS7003;60991;51.278;22.550;2022-09-09T06:09:15;11.50;8.00;4.00
72854;PMS7003;60991;51.278;22.550;2022-09-09T06:10:45;13.25;12.25;9.75
72854;PMS7003;60991;51.278;22.550;2022-09-09T06:12:15;18.25;13.50;10.50
72854;PMS7003;60991;51.278;22.550;2022-09-09T06:13:45;17.00;14.50;10.50
72854;PMS7003;60991;51.278;22.550;2022-09-09T06:15:16;12.75;10.50;8.00
72854;PMS7003;60991;51.278;22.550;2022-09-09T06:16:46;18.00;13.00;10.00
72854;PMS7003;60991;51.278;22.550;2022-09-09T06:18:16;14.25;13.50;8.50
72854;PMS7003;60991;51.278;22.550;2022-09-09T06:19:47;14.75;14.75;10.00
72854;PMS7003;60991;51.278;22.550;2022-09-09T06:21:18;13.50;11.25;9.00
72854;PMS7003;60991;51.278;22.550;2022-09-09T06:22:50;15.75;14.00;10.25
72854;PMS7003;60991;51.278;22.550;2022-09-09T06:24:20;14.75;13.75;9.75
72854;PMS7003;60991;51.278;22.550;2022-09-09T06:25:51;19.00;15.75;9.00
72854;PMS7003;60991;51.278;22.550;2022-09-09T06:27:21;18.25;15.00;10.00
72854;PMS7003;60991;51.278;22.550;2022-09-09T06:28:53;19.50;14.50;10.00
72854;PMS7003;60991;51.278;22.550;2022-09-09T06:30:24;14.75;13.75;10.75
72854;PMS7003;60991;51.278;22.550;2022-09-09T06:31:54;14.75;12.50;9.50
72854;PMS7003;60991;51.278;22.550;2022-09-09T06:33:25;12.00;11.25;8.00
72854;PMS7003;60991;51.278;22.550;2022-09-09T06:34:56;12.00;11.50;8.25
72854;PMS7003;60991;51.278;22.550;2022-09-09T06:36:27;13.50;12.00;9.25
72854;PMS7003;60991;51.278;22.550;2022-09-09T06:37:59;11.50;11.00;8.75
72854;PMS7003;60991;51.278;22.550;2022-09-09T06:39:29;15.25;13.00;9.00
72854;PMS7003;60991;51.278;22.550;2022-09-09T06:40:59;16.00;13.25;9.50
72854;PMS7003;60991;51.278;22.550;2022-09-09T06:42:30;14.00;14.00;9.25
72854;PMS7003;60991;51.278;22.550;2022-09-09T06:44:00;13.50;12.25;9.25
72854;PMS7003;60991;51.278;22.550;2022-09-09T06:45:30;11.75;11.75;8.75
72854;PMS7003;60991;51.278;22.550;2022-09-09T06:47:01;14.25;12.00;8.00
72854;PMS7003;60991;51.278;22.550;2022-09-09T06:48:31;12.50;11.25;8.50
72854;PMS7003;60991;51.278;22.550;2022-09-09T06:50:01;13.25;12.25;9.00
72854;PMS7003;60991;51.278;22.550;2022-09-09T06:51:34;14.00;11.25;9.00
72854;PMS7003;60991;51.278;22.550;2022-09-09T06:53:05;13.50;13.50;9.00
72854;PMS7003;60991;51.278;22.550;2022-09-09T06:54:36;16.25;12.50;9.00
72854;PMS7003;60991;51.278;22.550;2022-09-09T06:57:39;15.00;13.00;9.00
72854;PMS7003;60991;51.278;22.550;2022-09-09T06:59:10;11.00;11.00;9.25
72854;PMS7003;60991;51.278;22.550;2022-09-09T07:00:41;14.25;11.50;8.00
72854;PMS7003;60991;51.278;22.550;2022-09-09T07:02:11;12.25;10.00;8.00
72854;PMS7003;60991;51.278;22.550;2022-09-09T07:03:42;12.25;12.25;8.25
72854;PMS7003;60991;51.278;22.550;2022-09-09T07:05:15;12.75;12.25;8.50
72854;PMS7003;60991;51.278;22.550;2022-09-09T07:06:45;10.25;10.25;8.00
72854;PMS7003;60991;51.278;22.550;2022-09-09T07:08:16;18.25;14.25;10.50
72854;PMS7003;60991;51.278;22.550;2022-09-09T07:09:46;13.25;12.50;9.75
72854;PMS7003;60991;51.278;22.550;2022-09-09T07:11:16;15.00;13.50;9.00
72854;PMS7003;60991;51.278;22.550;2022-09-09T07:12:53;16.75;14.50;10.25
72854;PMS7003;60991;51.278;22.550;2022-09-09T07:14:23;17.50;16.50;10.50
72854;PMS7003;60991;51.278;22.550;2022-09-09T07:15:54;16.25;15.00;10.00
72854;PMS7003;60991;51.278;22.550;2022-09-09T07:17:24;19.50;14.75;10.00
72854;PMS7003;60991;51.278;22.550;2022-09-09T07:18:54;19.00;14.75;10.00
72854;PMS7003;60991;51.278;22.550;2022-09-09T07:20:24;18.00;15.25;11.00
72854;PMS7003;60991;51.278;22.550;2022-09-09T07:21:55;16.00;13.25;8.25
72854;PMS7003;60991;51.278;22.550;2022-09-09T07:23:25;15.50;11.00;9.00
72854;PMS7003;60991;51.278;22.550;2022-09-09T07:24:56;15.00;15.00;11.00
72854;PMS7003;60991;51.278;22.550;2022-09-09T07:26:26;12.25;12.25;8.50
72854;PMS7003;60991;51.278;22.550;2022-09-09T07:27:59;15.50;15.50;9.25
72854;PMS7003;60991;51.278;22.550;2022-09-09T07:29:29;18.25;16.25;10.00
72854;PMS7003;60991;51.278;22.550;2022-09-09T07:31:00;19.00;15.00;10.25
72854;PMS7003;60991;51.278;22.550;2022-09-09T07:32:32;20.00;16.25;10.25
72854;PMS7003;60991;51.278;22.550;2022-09-09T07:34:02;11.00;10.00;6.75
72854;PMS7003;60991;51.278;22.550;2022-09-09T07:35:33;18.50;17.50;11.00
72854;PMS7003;60991;51.278;22.550;2022-09-09T07:37:04;19.50;18.25;12.00
72854;PMS7003;60991;51.278;22.550;2022-09-09T07:38:41;20.00;16.75;12.00
72854;PMS7003;60991;51.278;22.550;2022-09-09T07:40:13;13.50;13.50;10.75
72854;PMS7003;60991;51.278;22.550;2022-09-09T07:41:47;17.50;14.50;11.00
72854;PMS7003;60991;51.278;22.550;2022-09-09T07:43:18;19.75;18.00;11.50
72854;PMS7003;60991;51.278;22.550;2022-09-09T07:44:48;16.00;14.25;10.00
72854;PMS7003;60991;51.278;22.550;2022-09-09T07:46:18;16.50;15.75;10.50
72854;PMS7003;60991;51.278;22.550;2022-09-09T07:47:50;16.50;16.50;12.00
72854;PMS7003;60991;51.278;22.550;2022-09-09T07:49:21;14.25;13.00;10.00
72854;PMS7003;60991;51.278;22.550;2022-09-09T07:50:51;18.75;17.25;12.25
72854;PMS7003;60991;51.278;22.550;2022-09-09T07:52:21;28.00;21.50;11.75
72854;PMS7003;60991;51.278;22.550;2022-09-09T07:53:53;18.75;18.00;12.50
72854;PMS7003;60991;51.278;22.550;2022-09-09T07:55:25;17.50;16.25;11.50
72854;PMS7003;60991;51.278;22.550;2022-09-09T07:56:55;16.50;16.50;11.75
72854;PMS7003;60991;51.278;22.550;2022-09-09T07:58:25;17.00;16.75;11.50
72854;PMS7003;60991;51.278;22.550;2022-09-09T07:59:56;18.50;18.50;11.25
72854;PMS7003;60991;51.278;22.550;2022-09-09T08:01:27;17.50;17.50;10.50
72854;PMS7003;60991;51.278;22.550;2022-09-09T08:03:00;17.75;16.75;8.00
72854;PMS7003;60991;51.278;22.550;2022-09-09T08:04:30;20.50;20.00;14.50
72854;PMS7003;60991;51.278;22.550;2022-09-09T08:06:01;11.00;11.00;6.25
72854;PMS7003;60991;51.278;22.550;2022-09-09T08:07:35;20.50;18.75;12.75
72854;PMS7003;60991;51.278;22.550;2022-09-09T08:09:06;23.00;20.75;12.00
72854;PMS7003;60991;51.278;22.550;2022-09-09T08:10:38;16.75;16.75;11.00
72854;PMS7003;60991;51.278;22.550;2022-09-09T08:12:08;18.75;18.50;12.00
72854;PMS7003;60991;51.278;22.550;2022-09-09T08:13:39;22.25;19.50;12.75
72854;PMS7003;60991;51.278;22.550;2022-09-09T08:15:10;18.25;16.00;12.00
72854;PMS7003;60991;51.278;22.550;2022-09-09T08:16:45;21.00;18.25;12.25
72854;PMS7003;60991;51.278;22.550;2022-09-09T08:18:16;19.75;17.00;11.25
72854;PMS7003;60991;51.278;22.550;2022-09-09T08:19:47;23.25;20.25;13.75
72854;PMS7003;60991;51.278;22.550;2022-09-09T08:21:18;22.00;20.50;13.00
72854;PMS7003;60991;51.278;22.550;2022-09-09T08:22:50;22.50;21.00;13.25
72854;PMS7003;60991;51.278;22.550;2022-09-09T08:24:20;23.25;21.50;14.75
72854;PMS7003;60991;51.278;22.550;2022-09-09T08:25:51;18.50;17.25;11.25
72854;PMS7003;60991;51.278;22.550;2022-09-09T08:27:21;20.75;17.25;10.50
72854;PMS7003;60991;51.278;22.550;2022-09-09T08:28:52;21.50;19.25;11.75
72854;PMS7003;60991;51.278;22.550;2022-09-09T08:30:24;24.25;22.25;13.75
72854;PMS7003;60991;51.278;22.550;2022-09-09T08:31:56;22.00;20.75;13.50
72854;PMS7003;60991;51.278;22.550;2022-09-09T08:33:27;23.75;22.50;14.75
72854;PMS7003;60991;51.278;22.550;2022-09-09T08:34:58;24.00;22.75;16.75
72854;PMS7003;60991;51.278;22.550;2022-09-09T08:36:28;22.75;21.25;12.00
72854;PMS7003;60991;51.278;22.550;2022-09-09T08:38:00;21.75;20.00;12.25
72854;PMS7003;60991;51.278;22.550;2022-09-09T08:39:30;18.00;15.25;10.75
72854;PMS7003;60991;51.278;22.550;2022-09-09T08:41:07;21.25;17.50;12.75
72854;PMS7003;60991;51.278;22.550;2022-09-09T08:42:47;19.50;19.25;13.50
72854;PMS7003;60991;51.278;22.550;2022-09-09T08:46:26;26.00;22.75;13.25
72854;PMS7003;60991;51.278;22.550;2022-09-09T08:51:27;23.00;20.25;12.25
72854;PMS7003;60991;51.278;22.550;2022-09-09T08:54:35;22.50;20.75;14.25
72854;PMS7003;60991;51.278;22.550;2022-09-09T08:56:16;24.75;22.25;12.75
72854;PMS7003;60991;51.278;22.550;2022-09-09T08:57:52;22.00;21.00;13.00
72854;PMS7003;60991;51.278;22.550;2022-09-09T08:59:25;21.00;19.75;13.50
72854;PMS7003;60991;51.278;22.550;2022-09-09T09:02:57;27.75;25.75;14.25
72854;PMS7003;60991;51.278;22.550;2022-09-09T09:08:06;28.25;25.00;14.75
72854;PMS7003;60991;51.278;22.550;2022-09-09T09:10:04;28.75;23.50;15.25
72854;PMS7003;60991;51.278;22.550;2022-09-09T09:11:49;20.50;19.00;14.00
72854;PMS7003;60991;51.278;22.550;2022-09-09T09:15:26;23.00;21.50;14.25
72854;PMS7003;60991;51.278;22.550;2022-09-09T09:17:04;22.50;19.75;13.75
72854;PMS7003;60991;51.278;22.550;2022-09-09T09:18:39;27.50;23.25;14.25
72854;PMS7003;60991;51.278;22.550;2022-09-09T09:20:13;23.75;21.25;12.50
72854;PMS7003;60991;51.278;22.550;2022-09-09T09:21:48;24.25;23.75;14.50
72854;PMS7003;60991;51.278;22.550;2022-09-09T09:23:24;25.50;22.75;15.50
72854;PMS7003;60991;51.278;22.550;2022-09-09T09:24:57;25.00;23.50;14.00
72854;PMS7003;60991;51.278;22.550;2022-09-09T09:26:50;22.75;21.50;13.00
72854;PMS7003;60991;51.278;22.550;2022-09-09T09:28:24;22.00;21.75;13.00
72854;PMS7003;60991;51.278;22.550;2022-09-09T09:29:58;18.75;17.75;12.50
72854;PMS7003;60991;51.278;22.550;2022-09-09T09:31:30;28.00;24.00;16.75
72854;PMS7003;60991;51.278;22.550;2022-09-09T09:33:02;21.50;19.25;12.75
72854;PMS7003;60991;51.278;22.550;2022-09-09T09:34:38;27.75;24.75;13.25
72854;PMS7003;60991;51.278;22.550;2022-09-09T09:36:09;22.00;19.75;12.00